createdAt,value
2022-10-04T00:01:51.594Z,1.70
2022-10-04T00:04:43.405Z,1.73
2022-10-04T00:07:13.789Z,1.42
2022-10-04T00:09:50.356Z,1.35
2022-10-04T00:12:21.110Z,1.25
2022-10-04T00:14:49.917Z,0.65
2022-10-04T00:17:24.068Z,1.23
2022-10-04T00:19:52.710Z,0.80
2022-10-04T00:22:25.057Z,2.58
2022-10-04T00:25:07.776Z,1.15
2022-10-04T00:27:36.753Z,1.75
2022-10-04T00:30:04.408Z,1.20
2022-10-04T00:32:42.268Z,1.05
2022-10-04T00:35:24.994Z,0.50
2022-10-04T00:38:26.316Z,2.50
2022-10-04T00:40:57.237Z,0.82
2022-10-04T00:43:29.615Z,0.95
2022-10-04T00:46:01.316Z,0.95
2022-10-04T00:48:50.439Z,1.20
2022-10-04T00:51:53.874Z,0.75
2022-10-04T00:54:31.439Z,0.75
2022-10-04T00:57:04.244Z,0.93
2022-10-04T00:59:36.041Z,1.25
2022-10-04T01:02:06.535Z,1.23
2022-10-04T01:04:41.527Z,2.60
2022-10-04T01:07:10.525Z,1.08
2022-10-04T01:09:46.105Z,2.20
2022-10-04T01:12:22.756Z,0.95
2022-10-04T01:15:05.147Z,0.70
2022-10-04T01:17:32.932Z,0.90
2022-10-04T01:20:00.475Z,1.33
2022-10-04T01:22:49.241Z,1.27
2022-10-04T01:25:49.095Z,1.33
2022-10-04T01:28:17.064Z,0.85
2022-10-04T01:30:45.028Z,1.12
2022-10-04T01:33:13.166Z,1.27
2022-10-04T01:35:40.746Z,0.93
2022-10-04T01:38:08.572Z,0.82
2022-10-04T01:40:43.999Z,1.12
2022-10-04T01:43:14.748Z,1.00
2022-10-04T01:45:51.681Z,0.98
2022-10-04T01:48:22.726Z,1.40
2022-10-04T01:51:05.754Z,0.98
2022-10-04T01:53:45.016Z,1.23
2022-10-04T01:56:15.103Z,0.95
2022-10-04T01:58:45.608Z,1.35
2022-10-04T02:01:24.096Z,0.85
2022-10-04T02:03:59.730Z,1.25
2022-10-04T02:06:27.525Z,1.50
2022-10-04T02:08:57.575Z,0.93
2022-10-04T02:11:28.233Z,0.95
2022-10-04T02:13:56.051Z,2.00
2022-10-04T02:16:24.886Z,0.90
2022-10-04T02:18:52.712Z,1.20
2022-10-04T02:21:21.228Z,1.10
2022-10-04T02:23:49.064Z,0.95
2022-10-04T02:26:16.502Z,3.15
2022-10-04T02:28:44.216Z,0.88
2022-10-04T02:31:30.360Z,1.45
2022-10-04T02:33:59.279Z,1.48
2022-10-04T02:36:28.694Z,1.00
2022-10-04T02:39:01.024Z,0.88
2022-10-04T02:41:38.418Z,1.15
2022-10-04T02:44:20.508Z,0.88
2022-10-04T02:46:56.213Z,0.93
2022-10-04T02:52:07.944Z,1.48
2022-10-04T02:55:03.066Z,1.05
2022-10-04T02:57:33.288Z,0.82
2022-10-04T03:00:10.855Z,0.68
2022-10-04T03:02:40.025Z,1.15
2022-10-04T03:05:11.360Z,0.70
2022-10-04T03:07:39.662Z,2.40
2022-10-04T03:10:10.052Z,1.15
2022-10-04T03:12:38.970Z,1.35
2022-10-04T03:15:09.567Z,0.77
2022-10-04T03:17:37.122Z,1.00
2022-10-04T03:20:05.707Z,0.73
2022-10-04T03:22:33.561Z,0.60
2022-10-04T03:25:01.623Z,1.20
2022-10-04T03:27:33.165Z,1.12
2022-10-04T03:30:02.034Z,1.30
2022-10-04T03:32:32.120Z,0.93
2022-10-04T03:35:03.469Z,2.65
2022-10-04T03:37:35.381Z,1.05
2022-10-04T03:40:04.118Z,1.10
2022-10-04T03:42:34.271Z,1.45
2022-10-04T03:45:11.723Z,1.52
2022-10-04T03:47:41.065Z,0.77
2022-10-04T03:50:13.648Z,1.27
2022-10-04T03:52:47.298Z,1.20
2022-10-04T03:55:15.639Z,1.30
2022-10-04T03:57:43.455Z,1.05
2022-10-04T04:00:15.310Z,1.20
2022-10-04T04:02:57.003Z,0.82
2022-10-04T04:05:29.494Z,1.00
2022-10-04T04:08:08.003Z,1.30
2022-10-04T04:10:38.363Z,1.20
2022-10-04T04:13:18.363Z,0.77
2022-10-04T04:15:46.192Z,0.82
2022-10-04T04:18:17.609Z,1.25
2022-10-04T04:20:45.767Z,0.73
2022-10-04T04:23:19.586Z,1.17
2022-10-04T04:25:48.930Z,1.20
2022-10-04T04:28:22.230Z,1.37
2022-10-04T04:30:53.312Z,0.93
2022-10-04T04:33:32.096Z,1.15
2022-10-04T04:36:07.304Z,0.95
2022-10-04T04:38:35.624Z,0.70
2022-10-04T04:41:10.910Z,0.93
2022-10-04T04:43:43.655Z,0.93
2022-10-04T04:46:27.060Z,1.12
2022-10-04T04:49:01.889Z,1.55
2022-10-04T04:51:31.620Z,1.50
2022-10-04T04:54:00.928Z,1.25
2022-10-04T04:56:29.261Z,1.08
2022-10-04T04:58:59.664Z,1.50
2022-10-04T05:01:33.146Z,0.70
2022-10-04T05:04:02.993Z,1.50
2022-10-04T05:06:31.655Z,0.95
2022-10-04T05:08:59.574Z,0.88
2022-10-04T05:11:31.098Z,0.70
2022-10-04T05:14:03.208Z,1.37
2022-10-04T05:16:50.262Z,1.48
2022-10-04T05:19:36.419Z,0.95
2022-10-04T05:22:10.119Z,0.65
2022-10-04T05:24:41.182Z,0.95
2022-10-04T05:27:18.268Z,1.15
2022-10-04T05:30:05.457Z,2.33
2022-10-04T05:32:35.628Z,1.37
2022-10-04T05:35:11.151Z,1.30
2022-10-04T05:37:54.077Z,1.58
2022-10-04T05:40:30.363Z,1.67
2022-10-04T05:42:59.494Z,1.12
2022-10-04T05:45:29.136Z,1.25
2022-10-04T05:47:58.724Z,1.12
2022-10-04T05:50:41.339Z,1.25
2022-10-04T05:53:22.768Z,1.08
2022-10-04T05:56:05.748Z,1.52
2022-10-04T05:58:58.551Z,1.17
2022-10-04T06:01:44.285Z,0.85
2022-10-04T06:04:38.586Z,1.23
2022-10-04T06:07:21.639Z,1.35
2022-10-04T06:09:56.771Z,1.52
2022-10-04T06:12:33.648Z,2.03
2022-10-04T06:15:23.130Z,0.80
2022-10-04T06:18:00.197Z,1.45
2022-10-04T06:20:46.097Z,1.65
2022-10-04T06:23:16.327Z,1.75
2022-10-04T06:25:53.018Z,1.45
2022-10-04T06:28:45.624Z,1.00
2022-10-04T06:31:24.286Z,0.80
2022-10-04T06:34:36.050Z,1.85
2022-10-04T06:37:07.315Z,1.40
2022-10-04T06:40:12.507Z,0.93
2022-10-04T06:42:58.808Z,2.30
2022-10-04T06:45:41.623Z,1.80
2022-10-04T06:48:24.630Z,0.98
2022-10-04T06:51:18.548Z,1.67
2022-10-04T06:54:21.712Z,0.98
2022-10-04T06:57:01.816Z,1.37
2022-10-04T06:59:33.086Z,2.37
2022-10-04T07:02:04.531Z,1.40
2022-10-04T07:05:07.156Z,1.15
2022-10-04T07:07:39.679Z,1.12
2022-10-04T07:10:31.033Z,2.30
2022-10-04T07:13:06.816Z,1.65
2022-10-04T07:15:45.054Z,1.40
2022-10-04T07:18:18.682Z,1.05
2022-10-04T07:20:48.994Z,0.90
2022-10-04T07:23:28.248Z,1.33
2022-10-04T07:26:00.839Z,1.33
2022-10-04T07:28:51.329Z,1.58
2022-10-04T07:31:23.221Z,1.12
2022-10-04T07:33:55.241Z,0.77
2022-10-04T07:36:32.391Z,1.10
2022-10-04T07:39:05.545Z,1.42
2022-10-04T07:41:36.379Z,0.98
2022-10-04T07:44:12.123Z,1.23
2022-10-04T07:46:42.834Z,1.42
2022-10-04T07:49:18.201Z,1.33
2022-10-04T07:51:51.979Z,1.37
2022-10-04T07:54:28.265Z,1.23
2022-10-04T07:57:00.299Z,2.03
2022-10-04T07:59:49.456Z,0.98
2022-10-04T08:02:37.685Z,1.65
2022-10-04T08:05:36.585Z,1.30
2022-10-04T08:08:25.900Z,1.35
2022-10-04T08:11:08.614Z,1.12
2022-10-04T08:13:50.359Z,1.25
2022-10-04T08:17:05.591Z,0.77
2022-10-04T08:19:50.200Z,1.12
2022-10-04T08:22:30.134Z,1.30
2022-10-04T08:25:11.917Z,1.25
2022-10-04T08:28:18.985Z,1.00
2022-10-04T08:31:12.727Z,1.25
2022-10-04T08:34:22.834Z,1.23
2022-10-04T08:37:24.215Z,1.17
2022-10-04T08:40:15.082Z,0.93
2022-10-04T08:42:51.224Z,1.55
2022-10-04T08:45:44.810Z,1.08
2022-10-04T08:48:30.760Z,1.17
2022-10-04T08:51:34.299Z,2.17
2022-10-04T08:54:20.306Z,1.15
2022-10-04T08:57:06.615Z,1.23
2022-10-04T08:59:57.940Z,1.62
2022-10-04T09:02:39.072Z,1.30
2022-10-04T09:05:13.678Z,0.88
2022-10-04T09:08:06.102Z,1.45
2022-10-04T09:10:57.351Z,1.73
2022-10-04T09:13:34.129Z,0.98
2022-10-04T09:16:30.166Z,1.15
2022-10-04T09:19:21.416Z,1.70
2022-10-04T09:22:12.661Z,1.55
2022-10-04T09:25:21.225Z,1.35
2022-10-04T09:27:55.755Z,1.33
2022-10-04T09:30:34.933Z,1.55
2022-10-04T09:33:11.235Z,1.37
2022-10-04T09:36:03.891Z,1.42
2022-10-04T09:39:18.331Z,1.48
2022-10-04T09:41:53.013Z,0.95
2022-10-04T09:44:46.167Z,1.27
2022-10-04T09:47:22.194Z,1.67
2022-10-04T09:50:07.205Z,1.10
2022-10-04T09:52:45.133Z,1.08
2022-10-04T09:55:34.053Z,1.75
2022-10-04T09:58:11.996Z,0.82
2022-10-04T10:00:47.700Z,1.37
2022-10-04T10:03:35.182Z,1.37
2022-10-04T10:06:28.881Z,2.03
2022-10-04T10:08:59.489Z,1.05
2022-10-04T10:11:58.632Z,1.00
2022-10-04T10:14:51.327Z,0.75
2022-10-04T10:17:24.700Z,1.02
2022-10-04T10:20:16.763Z,1.40
2022-10-04T10:23:16.531Z,1.25
2022-10-04T10:26:24.044Z,0.98
2022-10-04T10:29:11.642Z,1.60
2022-10-04T10:31:48.180Z,1.25
2022-10-04T10:34:38.793Z,0.85
2022-10-04T10:37:22.422Z,1.35
2022-10-04T10:40:27.585Z,1.73
2022-10-04T10:43:21.744Z,1.00
2022-10-04T10:46:20.229Z,1.33
2022-10-04T10:48:57.720Z,1.10
2022-10-04T10:51:43.633Z,1.20
2022-10-04T10:54:49.504Z,0.85
2022-10-04T10:57:47.977Z,1.27
2022-10-04T11:00:21.380Z,0.93
2022-10-04T11:03:12.262Z,1.17
2022-10-04T11:06:14.633Z,0.85
2022-10-04T11:09:19.870Z,1.12
2022-10-04T11:11:57.112Z,1.00
2022-10-04T11:14:38.739Z,1.17
2022-10-04T11:17:27.891Z,1.10
2022-10-04T11:20:24.841Z,1.52
2022-10-04T11:23:11.034Z,1.85
2022-10-04T11:26:00.687Z,1.33
2022-10-04T11:28:58.765Z,1.70
2022-10-04T11:31:54.932Z,1.23
2022-10-04T11:34:41.431Z,1.73
2022-10-04T11:37:23.381Z,2.00
2022-10-04T11:40:19.165Z,1.08
2022-10-04T11:43:04.754Z,1.65
2022-10-04T11:45:44.657Z,2.08
2022-10-04T11:48:33.285Z,1.27
2022-10-04T11:51:22.698Z,1.50
2022-10-04T11:53:52.597Z,1.67
2022-10-04T11:56:49.866Z,1.73
2022-10-04T11:59:32.649Z,1.17
2022-10-04T12:02:34.030Z,1.30
2022-10-04T12:05:33.153Z,1.58
2022-10-04T12:08:22.918Z,2.58
2022-10-04T12:11:21.046Z,1.33
2022-10-04T12:14:10.550Z,1.35
2022-10-04T12:17:10.266Z,1.15
2022-10-04T12:20:00.838Z,1.67
2022-10-04T12:22:50.014Z,1.85
2022-10-04T12:25:38.942Z,1.75
2022-10-04T12:28:19.882Z,1.85
2022-10-04T12:30:56.147Z,1.48
2022-10-04T12:33:37.362Z,1.50
2022-10-04T12:36:08.405Z,1.95
2022-10-04T12:38:45.279Z,1.60
2022-10-04T12:41:41.703Z,2.25
2022-10-04T12:44:21.471Z,1.85
2022-10-04T12:47:05.920Z,1.92
2022-10-04T12:50:02.792Z,1.20
2022-10-04T12:52:58.827Z,1.02
2022-10-04T12:55:44.674Z,1.98
2022-10-04T13:01:22.609Z,2.12
2022-10-04T13:04:34.135Z,1.23
2022-10-04T13:07:39.554Z,1.55
2022-10-04T13:10:25.262Z,1.42
2022-10-04T13:13:14.783Z,1.40
2022-10-04T13:18:53.561Z,1.92
2022-10-04T13:21:53.210Z,1.65
2022-10-04T13:24:55.218Z,1.95
2022-10-04T13:27:38.438Z,1.73
2022-10-04T13:30:13.452Z,1.35
2022-10-04T13:32:48.072Z,1.62
2022-10-04T13:35:25.120Z,1.85
2022-10-04T13:37:58.494Z,1.50
2022-10-04T13:40:45.148Z,1.40
2022-10-04T13:43:34.393Z,1.40
2022-10-04T13:46:11.787Z,1.70
2022-10-04T13:48:56.435Z,1.73
2022-10-04T13:51:42.522Z,1.08
2022-10-04T13:54:46.247Z,1.45
2022-10-04T13:57:31.667Z,1.23
2022-10-04T14:00:15.180Z,1.02
2022-10-04T14:02:52.096Z,1.40
2022-10-04T14:05:57.163Z,1.70
2022-10-04T14:08:56.689Z,1.42
2022-10-04T14:11:44.063Z,1.37
2022-10-04T14:14:30.753Z,1.87
2022-10-04T14:17:25.859Z,1.33
2022-10-04T14:20:02.732Z,1.05
2022-10-04T14:22:44.357Z,1.05
2022-10-04T14:25:49.369Z,1.45
2022-10-04T14:28:38.306Z,1.02
2022-10-04T14:31:59.730Z,1.15
2022-10-04T14:34:31.139Z,1.73
2022-10-04T14:36:58.779Z,2.08
2022-10-04T14:39:36.999Z,0.95
2022-10-04T14:42:18.644Z,1.65
2022-10-04T14:45:11.511Z,1.20
2022-10-04T14:48:02.415Z,0.77
2022-10-04T14:50:36.092Z,0.93
2022-10-04T14:53:25.145Z,0.60
2022-10-04T14:56:06.393Z,1.12
2022-10-04T14:59:02.546Z,1.17
2022-10-04T15:01:30.202Z,1.48
2022-10-04T15:04:14.440Z,1.08
2022-10-04T15:06:49.427Z,1.05
2022-10-04T15:12:25.542Z,1.35
2022-10-04T15:15:00.879Z,1.20
2022-10-04T15:17:32.895Z,1.08
2022-10-04T15:20:31.430Z,0.98
2022-10-04T15:23:01.714Z,1.42
2022-10-04T15:25:48.417Z,1.23
2022-10-04T15:28:44.019Z,0.98
2022-10-04T15:31:31.459Z,1.60
2022-10-04T15:34:07.615Z,0.80
2022-10-04T15:36:57.165Z,1.60
2022-10-04T15:39:50.950Z,1.95
2022-10-04T15:42:33.356Z,1.52
2022-10-04T15:45:19.070Z,1.00
2022-10-04T15:47:52.639Z,1.08
2022-10-04T15:50:55.545Z,1.23
2022-10-04T15:53:55.837Z,1.02
2022-10-04T15:56:45.453Z,1.05
2022-10-04T15:59:37.021Z,0.80
2022-10-04T16:02:23.221Z,1.92
2022-10-04T16:05:08.970Z,1.77
2022-10-04T16:07:55.121Z,1.67
2022-10-04T16:11:04.149Z,0.90
2022-10-04T16:13:40.640Z,1.50
2022-10-04T16:16:25.855Z,1.77
2022-10-04T16:19:11.508Z,1.67
2022-10-04T16:22:09.455Z,1.50
2022-10-04T16:24:44.361Z,2.17
2022-10-04T16:30:28.923Z,0.95
2022-10-04T16:33:06.505Z,0.98
2022-10-04T16:36:10.470Z,1.92
2022-10-04T16:39:07.308Z,1.55
2022-10-04T16:41:44.230Z,1.23
2022-10-04T16:44:53.825Z,1.55
2022-10-04T16:47:34.885Z,1.92
2022-10-04T16:50:04.993Z,1.27
2022-10-04T16:53:14.529Z,2.30
2022-10-04T16:55:57.197Z,1.75
2022-10-04T16:58:27.720Z,3.22
2022-10-04T17:01:23.887Z,4.32
2022-10-04T17:03:59.904Z,3.17
2022-10-04T17:06:48.609Z,2.85
2022-10-04T17:09:41.936Z,3.60
2022-10-04T17:12:24.779Z,3.22
2022-10-04T17:14:55.046Z,2.80
2022-10-04T17:17:34.927Z,2.47
2022-10-04T17:20:10.900Z,2.20
2022-10-04T17:23:06.629Z,1.80
2022-10-04T17:25:44.732Z,2.08
2022-10-04T17:28:20.715Z,1.87
2022-10-04T17:30:58.357Z,2.50
2022-10-04T17:33:43.521Z,1.70
2022-10-04T17:36:33.684Z,1.90
2022-10-04T17:39:19.914Z,2.17
2022-10-04T17:42:08.318Z,2.67
2022-10-04T17:45:14.600Z,1.95
2022-10-04T17:48:05.509Z,1.87
2022-10-04T17:50:58.843Z,1.95
2022-10-04T17:53:47.460Z,1.85
2022-10-04T17:56:26.139Z,2.60
2022-10-04T17:58:57.671Z,2.35
2022-10-04T18:01:45.930Z,1.60
2022-10-04T18:04:19.716Z,2.03
2022-10-04T18:06:55.897Z,1.85
2022-10-04T18:09:44.137Z,1.75
2022-10-04T18:12:15.555Z,2.05
2022-10-04T18:14:58.550Z,2.10
2022-10-04T18:17:39.007Z,1.92
2022-10-04T18:20:32.833Z,2.50
2022-10-04T18:23:12.310Z,1.85
2022-10-04T18:25:41.363Z,1.42
2022-10-04T18:28:08.889Z,2.62
2022-10-04T18:30:45.810Z,3.42
2022-10-04T18:33:15.635Z,3.15
2022-10-04T18:35:55.136Z,3.00
2022-10-04T18:38:27.850Z,2.25
2022-10-04T18:40:58.374Z,2.58
2022-10-04T18:43:32.441Z,2.37
2022-10-04T18:46:10.540Z,3.25
2022-10-04T18:48:59.903Z,3.95
2022-10-04T18:51:30.192Z,3.00
2022-10-04T18:54:16.514Z,3.33
2022-10-04T18:56:54.372Z,3.20
2022-10-04T19:00:13.213Z,2.35
2022-10-04T19:03:28.590Z,2.67
2022-10-04T19:06:02.808Z,2.72
2022-10-04T19:09:13.898Z,2.90
2022-10-04T19:12:04.790Z,2.83
2022-10-04T19:15:01.681Z,3.83
2022-10-04T19:17:46.582Z,2.67
2022-10-04T19:20:23.793Z,2.67
2022-10-04T19:23:19.600Z,2.80
2022-10-04T19:26:31.582Z,2.67
2022-10-04T19:29:37.119Z,2.92
2022-10-04T19:32:09.012Z,3.35
2022-10-04T19:35:15.741Z,1.70
2022-10-04T19:38:04.590Z,2.33
2022-10-04T19:40:45.079Z,1.25
2022-10-04T19:43:42.289Z,2.70
2022-10-04T19:46:19.860Z,1.85
2022-10-04T19:48:49.926Z,2.00
2022-10-04T19:51:26.934Z,1.83
2022-10-04T19:53:59.447Z,2.47
2022-10-04T19:56:31.816Z,1.77
2022-10-04T19:59:10.390Z,1.95
2022-10-04T20:01:38.804Z,2.25
2022-10-04T20:04:33.800Z,1.75
2022-10-04T20:07:03.776Z,1.62
2022-10-04T20:09:37.329Z,1.90
2022-10-04T20:12:05.520Z,1.37
2022-10-04T20:14:33.219Z,2.05
2022-10-04T20:17:00.877Z,2.67
2022-10-04T20:19:28.284Z,2.22
2022-10-04T20:22:08.206Z,2.83
2022-10-04T20:24:39.210Z,2.60
2022-10-04T20:27:09.203Z,2.17
2022-10-04T20:29:36.530Z,1.65
2022-10-04T20:32:06.080Z,2.30
2022-10-04T20:34:48.038Z,1.87
2022-10-04T20:37:18.988Z,2.37
2022-10-04T20:39:46.651Z,2.30
2022-10-04T20:42:27.166Z,1.85
2022-10-04T20:45:03.762Z,1.95
2022-10-04T20:47:40.745Z,2.87
2022-10-04T20:50:29.795Z,1.37
2022-10-04T20:53:00.289Z,2.85
2022-10-04T20:55:35.749Z,2.35
2022-10-04T20:58:24.871Z,1.62
2022-10-04T21:00:54.974Z,2.35
2022-10-04T21:03:23.119Z,2.45
2022-10-04T21:06:06.611Z,1.80
2022-10-04T21:08:35.269Z,1.95
2022-10-04T21:11:07.116Z,2.10
2022-10-04T21:13:51.993Z,3.17
2022-10-04T21:16:39.084Z,2.53
2022-10-04T21:19:38.872Z,1.62
2022-10-04T21:22:08.121Z,1.83
2022-10-04T21:24:49.040Z,2.12
2022-10-04T21:27:35.881Z,2.53
2022-10-04T21:30:07.399Z,2.60
2022-10-04T21:32:36.228Z,2.95
2022-10-04T21:35:05.209Z,2.17
2022-10-04T21:37:33.137Z,1.75
2022-10-04T21:40:01.042Z,1.92
2022-10-04T21:42:28.829Z,1.58
2022-10-04T21:44:56.369Z,2.35
2022-10-04T21:47:23.895Z,2.17
2022-10-04T21:49:52.145Z,2.35
2022-10-04T21:52:19.622Z,1.73
2022-10-04T21:54:47.129Z,2.05
2022-10-04T21:57:14.875Z,2.25
2022-10-04T21:59:42.309Z,2.10
2022-10-04T22:02:09.770Z,2.22
2022-10-04T22:04:38.226Z,2.33
2022-10-04T22:07:05.783Z,1.62
2022-10-04T22:09:34.019Z,2.90
2022-10-04T22:12:01.745Z,2.95
2022-10-04T22:14:29.227Z,2.20
2022-10-04T22:16:56.718Z,1.37
2022-10-04T22:19:24.421Z,2.92
2022-10-04T22:21:51.884Z,2.87
2022-10-04T22:24:20.570Z,3.05
2022-10-04T22:26:48.945Z,2.75
2022-10-04T22:29:17.982Z,3.70
2022-10-04T22:31:50.112Z,2.83
2022-10-04T22:34:20.343Z,1.85
2022-10-04T22:36:49.222Z,2.15
2022-10-04T22:39:19.000Z,4.10
2022-10-04T22:41:54.344Z,2.95
2022-10-04T22:44:38.957Z,2.15
2022-10-04T22:47:11.350Z,2.97
2022-10-04T22:49:41.563Z,2.78
2022-10-04T22:52:18.848Z,3.00
2022-10-04T22:54:49.599Z,2.67
2022-10-04T22:57:18.686Z,3.35
2022-10-04T22:59:50.995Z,4.03
2022-10-04T23:02:24.194Z,3.15
2022-10-04T23:04:54.295Z,2.28
2022-10-04T23:07:22.091Z,2.67
2022-10-04T23:09:49.720Z,1.65
2022-10-04T23:12:17.242Z,1.50
2022-10-04T23:14:44.974Z,3.37
2022-10-04T23:17:26.483Z,2.17
2022-10-04T23:20:00.030Z,2.08
2022-10-04T23:22:29.487Z,3.10
2022-10-04T23:24:57.681Z,1.37
2022-10-04T23:27:25.266Z,1.95
2022-10-04T23:30:02.621Z,1.35
2022-10-04T23:32:31.654Z,2.35
2022-10-04T23:34:59.841Z,1.42
2022-10-04T23:37:31.150Z,2.17
2022-10-04T23:39:59.208Z,1.95
2022-10-04T23:42:30.286Z,2.92
2022-10-04T23:45:01.772Z,2.62
2022-10-04T23:47:34.862Z,2.08
2022-10-04T23:50:08.009Z,1.83
2022-10-04T23:52:37.854Z,1.80
2022-10-04T23:55:35.361Z,1.37
2022-10-04T23:58:10.949Z,2.12
